sensor_id;sensor_type;location;lat;lon;timestamp;P1;durP1;ratioP1;P2;durP2;ratioP2
8183;SDS011;4133;48.752;9.088;2023-06-10T00:00:36;1.23;;;1.17;;
8183;SDS011;4133;48.752;9.088;2023-06-10T00:03:02;1.80;;;1.20;;
8183;SDS011;4133;48.752;9.088;2023-06-10T00:05:28;0.70;;;0.70;;
8183;SDS011;4133;48.752;9.088;2023-06-10T00:07:57;0.93;;;0.93;;
8183;SDS011;4133;48.752;9.088;2023-06-10T00:10:24;0.97;;;0.90;;
8183;SDS011;4133;48.752;9.088;2023-06-10T00:12:51;0.95;;;0.95;;
8183;SDS011;4133;48.752;9.088;2023-06-10T00:15:16;0.93;;;0.70;;
8183;SDS011;4133;48.752;9.088;2023-06-10T00:17:42;1.80;;;1.17;;
8183;SDS011;4133;48.752;9.088;2023-06-10T00:20:09;1.40;;;1.30;;
8183;SDS011;4133;48.752;9.088;2023-06-10T00:22:37;1.27;;;1.17;;
8183;SDS011;4133;48.752;9.088;2023-06-10T00:25:05;1.20;;;1.10;;
8183;SDS011;4133;48.752;9.088;2023-06-10T00:27:31;0.90;;;0.90;;
8183;SDS011;4133;48.752;9.088;2023-06-10T00:30:03;1.30;;;1.20;;
8183;SDS011;4133;48.752;9.088;2023-06-10T00:32:32;1.53;;;1.43;;
8183;SDS011;4133;48.752;9.088;2023-06-10T00:34:58;1.33;;;1.23;;
8183;SDS011;4133;48.752;9.088;2023-06-10T00:37:24;1.37;;;1.27;;
8183;SDS011;4133;48.752;9.088;2023-06-10T00:42:53;1.13;;;1.13;;
8183;SDS011;4133;48.752;9.088;2023-06-10T00:48:23;1.50;;;1.27;;
8183;SDS011;4133;48.752;9.088;2023-06-10T00:50:49;1.37;;;1.27;;
8183;SDS011;4133;48.752;9.088;2023-06-10T00:53:16;1.07;;;1.07;;
8183;SDS011;4133;48.752;9.088;2023-06-10T00:55:42;1.03;;;1.03;;
8183;SDS011;4133;48.752;9.088;2023-06-10T00:58:08;1.90;;;1.50;;
8183;SDS011;4133;48.752;9.088;2023-06-10T01:00:34;1.60;;;1.40;;
8183;SDS011;4133;48.752;9.088;2023-06-10T01:03:00;1.50;;;1.40;;
8183;SDS011;4133;48.752;9.088;2023-06-10T01:05:26;1.30;;;1.20;;
8183;SDS011;4133;48.752;9.088;2023-06-10T01:07:56;0.93;;;0.93;;
8183;SDS011;4133;48.752;9.088;2023-06-10T01:10:31;2.03;;;1.40;;
8183;SDS011;4133;48.752;9.088;2023-06-10T01:15:33;1.27;;;1.27;;
8183;SDS011;4133;48.752;9.088;2023-06-10T01:18:03;1.23;;;0.80;;
8183;SDS011;4133;48.752;9.088;2023-06-10T01:20:33;1.37;;;1.27;;
8183;SDS011;4133;48.752;9.088;2023-06-10T01:23:02;1.30;;;1.20;;
8183;SDS011;4133;48.752;9.088;2023-06-10T01:25:29;1.37;;;1.27;;
8183;SDS011;4133;48.752;9.088;2023-06-10T01:28:08;1.33;;;1.23;;
8183;SDS011;4133;48.752;9.088;2023-06-10T01:30:42;1.33;;;1.23;;
8183;SDS011;4133;48.752;9.088;2023-06-10T01:33:10;1.43;;;1.30;;
8183;SDS011;4133;48.752;9.088;2023-06-10T01:35:37;1.30;;;1.20;;
8183;SDS011;4133;48.752;9.088;2023-06-10T01:38:04;1.27;;;1.27;;
8183;SDS011;4133;48.752;9.088;2023-06-10T01:40:30;1.10;;;1.10;;
8183;SDS011;4133;48.752;9.088;2023-06-10T01:42:56;1.33;;;1.23;;
8183;SDS011;4133;48.752;9.088;2023-06-10T01:48:26;1.23;;;1.17;;
8183;SDS011;4133;48.752;9.088;2023-06-10T01:50:52;1.53;;;1.43;;
8183;SDS011;4133;48.752;9.088;2023-06-10T01:53:20;2.00;;;1.37;;
8183;SDS011;4133;48.752;9.088;2023-06-10T01:55:46;1.40;;;1.30;;
8183;SDS011;4133;48.752;9.088;2023-06-10T01:58:12;1.37;;;1.27;;
8183;SDS011;4133;48.752;9.088;2023-06-10T02:00:38;1.37;;;1.27;;
8183;SDS011;4133;48.752;9.088;2023-06-10T02:03:04;1.60;;;1.50;;
8183;SDS011;4133;48.752;9.088;2023-06-10T02:05:30;1.30;;;1.20;;
8183;SDS011;4133;48.752;9.088;2023-06-10T02:07:57;0.93;;;0.93;;
8183;SDS011;4133;48.752;9.088;2023-06-10T02:10:23;1.23;;;1.13;;
8183;SDS011;4133;48.752;9.088;2023-06-10T02:12:49;1.20;;;1.20;;
8183;SDS011;4133;48.752;9.088;2023-06-10T02:15:15;1.07;;;1.07;;
8183;SDS011;4133;48.752;9.088;2023-06-10T02:17:41;1.50;;;1.40;;
8183;SDS011;4133;48.752;9.088;2023-06-10T02:20:09;1.30;;;1.20;;
8183;SDS011;4133;48.752;9.088;2023-06-10T02:22:36;1.30;;;1.20;;
8183;SDS011;4133;48.752;9.088;2023-06-10T02:25:02;1.37;;;1.27;;
8183;SDS011;4133;48.752;9.088;2023-06-10T02:27:28;1.50;;;1.40;;
8183;SDS011;4133;48.752;9.088;2023-06-10T02:29:55;2.67;;;1.10;;
8183;SDS011;4133;48.752;9.088;2023-06-10T02:32:21;1.40;;;1.30;;
8183;SDS011;4133;48.752;9.088;2023-06-10T02:34:47;2.23;;;1.50;;
8183;SDS011;4133;48.752;9.088;2023-06-10T02:37:16;1.67;;;1.57;;
8183;SDS011;4133;48.752;9.088;2023-06-10T02:39:42;2.07;;;1.70;;
8183;SDS011;4133;48.752;9.088;2023-06-10T02:42:08;1.30;;;1.20;;
8183;SDS011;4133;48.752;9.088;2023-06-10T02:47:39;1.70;;;1.60;;
8183;SDS011;4133;48.752;9.088;2023-06-10T02:50:05;1.50;;;1.40;;
8183;SDS011;4133;48.752;9.088;2023-06-10T02:52:31;1.27;;;1.13;;
8183;SDS011;4133;48.752;9.088;2023-06-10T02:54:57;0.97;;;0.97;;
8183;SDS011;4133;48.752;9.088;2023-06-10T02:57:23;1.37;;;1.03;;
8183;SDS011;4133;48.752;9.088;2023-06-10T02:59:49;2.23;;;1.50;;
8183;SDS011;4133;48.752;9.088;2023-06-10T03:02:16;2.60;;;1.50;;
8183;SDS011;4133;48.752;9.088;2023-06-10T03:04:42;0.97;;;0.97;;
8183;SDS011;4133;48.752;9.088;2023-06-10T03:07:10;1.10;;;1.10;;
8183;SDS011;4133;48.752;9.088;2023-06-10T03:09:36;1.70;;;1.17;;
8183;SDS011;4133;48.752;9.088;2023-06-10T03:12:02;1.37;;;1.20;;
8183;SDS011;4133;48.752;9.088;2023-06-10T03:14:28;1.50;;;1.40;;
8183;SDS011;4133;48.752;9.088;2023-06-10T03:16:54;1.30;;;1.20;;
8183;SDS011;4133;48.752;9.088;2023-06-10T03:19:20;1.17;;;1.13;;
8183;SDS011;4133;48.752;9.088;2023-06-10T03:21:49;1.20;;;1.20;;
8183;SDS011;4133;48.752;9.088;2023-06-10T03:24:15;1.73;;;1.13;;
8183;SDS011;4133;48.752;9.088;2023-06-10T03:26:41;1.33;;;1.27;;
8183;SDS011;4133;48.752;9.088;2023-06-10T03:29:07;1.37;;;1.23;;
8183;SDS011;4133;48.752;9.088;2023-06-10T03:31:33;1.30;;;1.20;;
8183;SDS011;4133;48.752;9.088;2023-06-10T03:34:01;2.17;;;1.47;;
8183;SDS011;4133;48.752;9.088;2023-06-10T03:36:27;1.43;;;1.33;;
8183;SDS011;4133;48.752;9.088;2023-06-10T03:38:54;2.13;;;1.20;;
8183;SDS011;4133;48.752;9.088;2023-06-10T03:41:21;1.10;;;1.10;;
8183;SDS011;4133;48.752;9.088;2023-06-10T03:43:47;1.97;;;1.77;;
8183;SDS011;4133;48.752;9.088;2023-06-10T03:49:17;1.57;;;1.40;;
8183;SDS011;4133;48.752;9.088;2023-06-10T03:51:43;1.37;;;1.27;;
8183;SDS011;4133;48.752;9.088;2023-06-10T03:54:09;1.50;;;1.40;;
8183;SDS011;4133;48.752;9.088;2023-06-10T03:56:35;1.37;;;1.27;;
8183;SDS011;4133;48.752;9.088;2023-06-10T03:59:01;1.37;;;1.27;;
8183;SDS011;4133;48.752;9.088;2023-06-10T04:01:27;1.70;;;1.60;;
8183;SDS011;4133;48.752;9.088;2023-06-10T04:03:53;1.20;;;1.10;;
8183;SDS011;4133;48.752;9.088;2023-06-10T04:06:20;1.40;;;1.30;;
8183;SDS011;4133;48.752;9.088;2023-06-10T04:08:47;1.23;;;1.23;;
8183;SDS011;4133;48.752;9.088;2023-06-10T04:11:13;1.30;;;1.20;;
8183;SDS011;4133;48.752;9.088;2023-06-10T04:13:39;3.07;;;1.30;;
8183;SDS011;4133;48.752;9.088;2023-06-10T04:16:05;1.00;;;1.00;;
8183;SDS011;4133;48.752;9.088;2023-06-10T04:18:31;2.03;;;1.33;;
8183;SDS011;4133;48.752;9.088;2023-06-10T04:20:57;1.20;;;1.10;;
8183;SDS011;4133;48.752;9.088;2023-06-10T04:23:23;1.17;;;1.17;;
8183;SDS011;4133;48.752;9.088;2023-06-10T04:25:49;1.60;;;1.40;;
8183;SDS011;4133;48.752;9.088;2023-06-10T04:28:15;1.63;;;1.53;;
8183;SDS011;4133;48.752;9.088;2023-06-10T04:30:41;1.10;;;1.10;;
8183;SDS011;4133;48.752;9.088;2023-06-10T04:33:07;1.53;;;1.43;;
8183;SDS011;4133;48.752;9.088;2023-06-10T04:35:34;2.60;;;1.67;;
8183;SDS011;4133;48.752;9.088;2023-06-10T04:41:03;1.47;;;1.37;;
8183;SDS011;4133;48.752;9.088;2023-06-10T04:43:29;0.97;;;0.97;;
8183;SDS011;4133;48.752;9.088;2023-06-10T04:48:59;1.73;;;1.17;;
8183;SDS011;4133;48.752;9.088;2023-06-10T04:51:25;1.50;;;1.40;;
8183;SDS011;4133;48.752;9.088;2023-06-10T04:53:51;1.30;;;1.20;;
8183;SDS011;4133;48.752;9.088;2023-06-10T04:56:18;1.57;;;1.30;;
8183;SDS011;4133;48.752;9.088;2023-06-10T04:58:45;1.73;;;1.43;;
8183;SDS011;4133;48.752;9.088;2023-06-10T05:01:11;1.43;;;1.30;;
8183;SDS011;4133;48.752;9.088;2023-06-10T05:03:37;1.40;;;1.30;;
8183;SDS011;4133;48.752;9.088;2023-06-10T05:06:03;1.13;;;1.03;;
8183;SDS011;4133;48.752;9.088;2023-06-10T05:08:29;1.70;;;1.20;;
8183;SDS011;4133;48.752;9.088;2023-06-10T05:10:55;1.60;;;1.50;;
8183;SDS011;4133;48.752;9.088;2023-06-10T05:13:21;1.03;;;1.03;;
8183;SDS011;4133;48.752;9.088;2023-06-10T05:15:47;4.50;;;1.40;;
8183;SDS011;4133;48.752;9.088;2023-06-10T05:18:13;1.20;;;1.10;;
8183;SDS011;4133;48.752;9.088;2023-06-10T05:20:39;1.37;;;1.27;;
8183;SDS011;4133;48.752;9.088;2023-06-10T05:23:05;1.40;;;1.30;;
8183;SDS011;4133;48.752;9.088;2023-06-10T05:25:32;0.70;;;0.70;;
8183;SDS011;4133;48.752;9.088;2023-06-10T05:27:58;0.90;;;0.90;;
8183;SDS011;4133;48.752;9.088;2023-06-10T05:30:24;1.10;;;1.10;;
8183;SDS011;4133;48.752;9.088;2023-06-10T05:32:51;1.10;;;1.00;;
8183;SDS011;4133;48.752;9.088;2023-06-10T05:35:17;1.02;;;0.77;;
8183;SDS011;4133;48.752;9.088;2023-06-10T05:37:44;0.70;;;0.70;;
8183;SDS011;4133;48.752;9.088;2023-06-10T05:40:10;1.10;;;1.08;;
8183;SDS011;4133;48.752;9.088;2023-06-10T05:42:36;0.97;;;0.97;;
8183;SDS011;4133;48.752;9.088;2023-06-10T05:45:17;0.83;;;0.83;;
8183;SDS011;4133;48.752;9.088;2023-06-10T05:47:43;1.23;;;1.13;;
8183;SDS011;4133;48.752;9.088;2023-06-10T05:50:09;0.82;;;0.82;;
8183;SDS011;4133;48.752;9.088;2023-06-10T05:52:35;0.90;;;0.90;;
8183;SDS011;4133;48.752;9.088;2023-06-10T05:55:02;0.50;;;0.50;;
8183;SDS011;4133;48.752;9.088;2023-06-10T05:57:28;0.90;;;0.90;;
8183;SDS011;4133;48.752;9.088;2023-06-10T05:59:54;0.63;;;0.63;;
8183;SDS011;4133;48.752;9.088;2023-06-10T06:02:20;0.60;;;0.60;;
8183;SDS011;4133;48.752;9.088;2023-06-10T06:04:46;1.10;;;1.00;;
8183;SDS011;4133;48.752;9.088;2023-06-10T06:07:12;1.10;;;0.90;;
8183;SDS011;4133;48.752;9.088;2023-06-10T06:09:38;0.80;;;0.80;;
8183;SDS011;4133;48.752;9.088;2023-06-10T06:12:04;0.77;;;0.77;;
8183;SDS011;4133;48.752;9.088;2023-06-10T06:14:32;0.82;;;0.82;;
8183;SDS011;4133;48.752;9.088;2023-06-10T06:16:58;0.80;;;0.80;;
8183;SDS011;4133;48.752;9.088;2023-06-10T06:19:24;0.60;;;0.60;;
8183;SDS011;4133;48.752;9.088;2023-06-10T06:21:50;0.63;;;0.63;;
8183;SDS011;4133;48.752;9.088;2023-06-10T06:24:16;0.80;;;0.80;;
8183;SDS011;4133;48.752;9.088;2023-06-10T06:26:42;0.40;;;0.40;;
8183;SDS011;4133;48.752;9.088;2023-06-10T06:29:08;0.60;;;0.60;;
8183;SDS011;4133;48.752;9.088;2023-06-10T06:31:34;0.80;;;0.80;;
8183;SDS011;4133;48.752;9.088;2023-06-10T06:34:00;0.77;;;0.77;;
8183;SDS011;4133;48.752;9.088;2023-06-10T06:36:26;0.80;;;0.80;;
8183;SDS011;4133;48.752;9.088;2023-06-10T06:38:52;0.50;;;0.50;;
8183;SDS011;4133;48.752;9.088;2023-06-10T06:41:18;0.70;;;0.70;;
8183;SDS011;4133;48.752;9.088;2023-06-10T06:43:44;1.95;;;0.73;;
8183;SDS011;4133;48.752;9.088;2023-06-10T06:46:10;0.43;;;0.43;;
8183;SDS011;4133;48.752;9.088;2023-06-10T06:48:36;0.70;;;0.70;;
8183;SDS011;4133;48.752;9.088;2023-06-10T06:51:03;0.85;;;0.85;;
8183;SDS011;4133;48.752;9.088;2023-06-10T06:53:29;0.63;;;0.63;;
8183;SDS011;4133;48.752;9.088;2023-06-10T06:55:55;0.50;;;0.50;;
8183;SDS011;4133;48.752;9.088;2023-06-10T06:58:20;0.70;;;0.70;;
8183;SDS011;4133;48.752;9.088;2023-06-10T07:00:46;0.40;;;0.40;;
8183;SDS011;4133;48.752;9.088;2023-06-10T07:03:12;0.60;;;0.60;;
8183;SDS011;4133;48.752;9.088;2023-06-10T07:05:39;0.70;;;0.70;;
8183;SDS011;4133;48.752;9.088;2023-06-10T07:08:05;0.60;;;0.60;;
8183;SDS011;4133;48.752;9.088;2023-06-10T07:10:31;0.70;;;0.70;;
8183;SDS011;4133;48.752;9.088;2023-06-10T07:12:58;0.40;;;0.40;;
8183;SDS011;4133;48.752;9.088;2023-06-10T07:15:24;0.77;;;0.65;;
8183;SDS011;4133;48.752;9.088;2023-06-10T07:17:49;0.65;;;0.65;;
8183;SDS011;4133;48.752;9.088;2023-06-10T07:20:16;0.63;;;0.63;;
8183;SDS011;4133;48.752;9.088;2023-06-10T07:22:43;0.90;;;0.90;;
8183;SDS011;4133;48.752;9.088;2023-06-10T07:25:09;0.70;;;0.60;;
8183;SDS011;4133;48.752;9.088;2023-06-10T07:27:35;0.60;;;0.60;;
8183;SDS011;4133;48.752;9.088;2023-06-10T07:30:02;0.70;;;0.70;;
8183;SDS011;4133;48.752;9.088;2023-06-10T07:32:28;0.75;;;0.75;;
8183;SDS011;4133;48.752;9.088;2023-06-10T07:34:54;0.50;;;0.50;;
8183;SDS011;4133;48.752;9.088;2023-06-10T07:37:20;0.63;;;0.63;;
8183;SDS011;4133;48.752;9.088;2023-06-10T07:39:46;0.60;;;0.60;;
8183;SDS011;4133;48.752;9.088;2023-06-10T07:42:12;0.70;;;0.70;;
8183;SDS011;4133;48.752;9.088;2023-06-10T07:44:38;0.68;;;0.68;;
8183;SDS011;4133;48.752;9.088;2023-06-10T07:47:04;0.73;;;0.73;;
8183;SDS011;4133;48.752;9.088;2023-06-10T07:49:30;0.50;;;0.50;;
8183;SDS011;4133;48.752;9.088;2023-06-10T07:51:56;0.52;;;0.52;;
8183;SDS011;4133;48.752;9.088;2023-06-10T07:54:22;0.93;;;0.80;;
8183;SDS011;4133;48.752;9.088;2023-06-10T07:56:49;1.05;;;1.00;;
8183;SDS011;4133;48.752;9.088;2023-06-10T07:59:17;0.88;;;0.88;;
8183;SDS011;4133;48.752;9.088;2023-06-10T08:01:43;0.70;;;0.70;;
8183;SDS011;4133;48.752;9.088;2023-06-10T08:04:09;0.60;;;0.60;;
8183;SDS011;4133;48.752;9.088;2023-06-10T08:09:32;0.68;;;0.65;;
8183;SDS011;4133;48.752;9.088;2023-06-10T08:11:58;0.50;;;0.50;;
8183;SDS011;4133;48.752;9.088;2023-06-10T08:14:24;0.88;;;0.88;;
8183;SDS011;4133;48.752;9.088;2023-06-10T08:16:50;0.95;;;0.80;;
8183;SDS011;4133;48.752;9.088;2023-06-10T08:19:16;0.70;;;0.70;;
8183;SDS011;4133;48.752;9.088;2023-06-10T08:21:42;0.60;;;0.60;;
8183;SDS011;4133;48.752;9.088;2023-06-10T08:24:08;0.80;;;0.80;;
8183;SDS011;4133;48.752;9.088;2023-06-10T08:26:34;0.80;;;0.80;;
8183;SDS011;4133;48.752;9.088;2023-06-10T08:29:00;0.73;;;0.73;;
8183;SDS011;4133;48.752;9.088;2023-06-10T08:31:27;0.80;;;0.80;;
8183;SDS011;4133;48.752;9.088;2023-06-10T08:33:52;0.82;;;0.82;;
8183;SDS011;4133;48.752;9.088;2023-06-10T08:36:18;0.65;;;0.65;;
8183;SDS011;4133;48.752;9.088;2023-06-10T08:38:46;1.08;;;0.60;;
8183;SDS011;4133;48.752;9.088;2023-06-10T08:41:12;0.77;;;0.77;;
8183;SDS011;4133;48.752;9.088;2023-06-10T08:43:42;0.60;;;0.60;;
8183;SDS011;4133;48.752;9.088;2023-06-10T08:46:09;0.85;;;0.85;;
8183;SDS011;4133;48.752;9.088;2023-06-10T08:48:36;0.60;;;0.60;;
8183;SDS011;4133;48.752;9.088;2023-06-10T08:51:05;0.60;;;0.60;;
8183;SDS011;4133;48.752;9.088;2023-06-10T08:53:31;0.80;;;0.80;;
8183;SDS011;4133;48.752;9.088;2023-06-10T08:56:00;1.48;;;0.77;;
8183;SDS011;4133;48.752;9.088;2023-06-10T08:58:34;0.70;;;0.70;;
8183;SDS011;4133;48.752;9.088;2023-06-10T09:01:06;0.63;;;0.63;;
8183;SDS011;4133;48.752;9.088;2023-06-10T09:03:33;0.73;;;0.73;;
8183;SDS011;4133;48.752;9.088;2023-06-10T09:06:07;0.70;;;0.70;;
8183;SDS011;4133;48.752;9.088;2023-06-10T09:08:34;0.60;;;0.60;;
8183;SDS011;4133;48.752;9.088;2023-06-10T09:11:00;0.60;;;0.60;;
8183;SDS011;4133;48.752;9.088;2023-06-10T09:13:26;0.70;;;0.70;;
8183;SDS011;4133;48.752;9.088;2023-06-10T09:15:52;0.60;;;0.60;;
8183;SDS011;4133;48.752;9.088;2023-06-10T09:18:21;0.73;;;0.73;;
8183;SDS011;4133;48.752;9.088;2023-06-10T09:20:47;0.70;;;0.70;;
8183;SDS011;4133;48.752;9.088;2023-06-10T09:23:13;0.68;;;0.57;;
8183;SDS011;4133;48.752;9.088;2023-06-10T09:25:41;0.50;;;0.50;;
8183;SDS011;4133;48.752;9.088;2023-06-10T09:28:16;0.75;;;0.68;;
8183;SDS011;4133;48.752;9.088;2023-06-10T09:30:43;0.50;;;0.50;;
8183;SDS011;4133;48.752;9.088;2023-06-10T09:33:10;0.70;;;0.70;;
8183;SDS011;4133;48.752;9.088;2023-06-10T09:35:37;0.60;;;0.60;;
8183;SDS011;4133;48.752;9.088;2023-06-10T09:38:10;1.08;;;0.68;;
8183;SDS011;4133;48.752;9.088;2023-06-10T09:40:48;0.60;;;0.60;;
8183;SDS011;4133;48.752;9.088;2023-06-10T09:43:14;0.52;;;0.52;;
8183;SDS011;4133;48.752;9.088;2023-06-10T09:45:40;0.60;;;0.60;;
8183;SDS011;4133;48.752;9.088;2023-06-10T09:48:08;0.50;;;0.50;;
8183;SDS011;4133;48.752;9.088;2023-06-10T09:50:34;0.65;;;0.65;;
8183;SDS011;4133;48.752;9.088;2023-06-10T09:53:00;0.50;;;0.50;;
8183;SDS011;4133;48.752;9.088;2023-06-10T09:55:33;0.35;;;0.35;;
8183;SDS011;4133;48.752;9.088;2023-06-10T09:58:00;0.60;;;0.50;;
8183;SDS011;4133;48.752;9.088;2023-06-10T10:00:26;0.68;;;0.68;;
8183;SDS011;4133;48.752;9.088;2023-06-10T10:02:52;0.65;;;0.65;;
8183;SDS011;4133;48.752;9.088;2023-06-10T10:08:22;0.50;;;0.50;;
8183;SDS011;4133;48.752;9.088;2023-06-10T10:10:48;0.57;;;0.57;;
8183;SDS011;4133;48.752;9.088;2023-06-10T10:13:14;0.70;;;0.70;;
8183;SDS011;4133;48.752;9.088;2023-06-10T10:15:41;0.50;;;0.50;;
8183;SDS011;4133;48.752;9.088;2023-06-10T10:18:07;0.90;;;0.60;;
8183;SDS011;4133;48.752;9.088;2023-06-10T10:20:35;0.52;;;0.52;;
8183;SDS011;4133;48.752;9.088;2023-06-10T10:23:03;0.60;;;0.60;;
8183;SDS011;4133;48.752;9.088;2023-06-10T10:25:32;0.70;;;0.70;;
8183;SDS011;4133;48.752;9.088;2023-06-10T10:28:17;0.60;;;0.60;;
8183;SDS011;4133;48.752;9.088;2023-06-10T10:30:47;0.60;;;0.60;;
8183;SDS011;4133;48.752;9.088;2023-06-10T10:34:15;0.50;;;0.50;;
8183;SDS011;4133;48.752;9.088;2023-06-10T10:36:10;0.90;;;0.90;;
8183;SDS011;4133;48.752;9.088;2023-06-10T10:38:36;0.50;;;0.50;;
8183;SDS011;4133;48.752;9.088;2023-06-10T10:41:02;0.50;;;0.50;;
8183;SDS011;4133;48.752;9.088;2023-06-10T10:43:30;0.40;;;0.40;;
8183;SDS011;4133;48.752;9.088;2023-06-10T10:45:59;0.65;;;0.65;;
8183;SDS011;4133;48.752;9.088;2023-06-10T10:48:27;0.80;;;0.80;;
8183;SDS011;4133;48.752;9.088;2023-06-10T10:50:59;0.60;;;0.60;;
8183;SDS011;4133;48.752;9.088;2023-06-10T10:53:25;0.50;;;0.50;;
8183;SDS011;4133;48.752;9.088;2023-06-10T10:55:57;0.55;;;0.55;;
8183;SDS011;4133;48.752;9.088;2023-06-10T10:58:24;0.55;;;0.55;;
8183;SDS011;4133;48.752;9.088;2023-06-10T11:00:51;0.47;;;0.47;;
8183;SDS011;4133;48.752;9.088;2023-06-10T11:03:17;0.45;;;0.45;;
8183;SDS011;4133;48.752;9.088;2023-06-10T11:08:47;0.40;;;0.40;;
8183;SDS011;4133;48.752;9.088;2023-06-10T11:11:26;0.77;;;0.77;;
8183;SDS011;4133;48.752;9.088;2023-06-10T11:14:07;0.63;;;0.63;;
8183;SDS011;4133;48.752;9.088;2023-06-10T11:16:38;0.43;;;0.43;;
8183;SDS011;4133;48.752;9.088;2023-06-10T11:19:05;0.65;;;0.65;;
8183;SDS011;4133;48.752;9.088;2023-06-10T11:21:31;0.90;;;0.70;;
8183;SDS011;4133;48.752;9.088;2023-06-10T11:24:00;0.70;;;0.70;;
8183;SDS011;4133;48.752;9.088;2023-06-10T11:26:43;0.55;;;0.55;;
8183;SDS011;4133;48.752;9.088;2023-06-10T11:29:09;0.68;;;0.60;;
8183;SDS011;4133;48.752;9.088;2023-06-10T11:31:40;0.47;;;0.47;;
8183;SDS011;4133;48.752;9.088;2023-06-10T11:34:06;0.50;;;0.50;;
8183;SDS011;4133;48.752;9.088;2023-06-10T11:36:33;0.63;;;0.63;;
8183;SDS011;4133;48.752;9.088;2023-06-10T11:39:03;0.70;;;0.70;;
8183;SDS011;4133;48.752;9.088;2023-06-10T11:41:30;0.60;;;0.60;;
8183;SDS011;4133;48.752;9.088;2023-06-10T11:43:59;0.57;;;0.57;;
8183;SDS011;4133;48.752;9.088;2023-06-10T11:46:26;0.70;;;0.70;;
8183;SDS011;4133;48.752;9.088;2023-06-10T11:48:53;0.70;;;0.65;;
8183;SDS011;4133;48.752;9.088;2023-06-10T11:51:19;0.55;;;0.55;;
8183;SDS011;4133;48.752;9.088;2023-06-10T11:53:46;0.60;;;0.60;;
8183;SDS011;4133;48.752;9.088;2023-06-10T11:56:12;0.70;;;0.70;;
8183;SDS011;4133;48.752;9.088;2023-06-10T11:58:40;0.70;;;0.70;;
8183;SDS011;4133;48.752;9.088;2023-06-10T12:01:09;0.50;;;0.50;;
8183;SDS011;4133;48.752;9.088;2023-06-10T12:03:35;0.52;;;0.52;;
8183;SDS011;4133;48.752;9.088;2023-06-10T12:09:17;0.75;;;0.75;;
8183;SDS011;4133;48.752;9.088;2023-06-10T12:11:43;0.50;;;0.50;;
8183;SDS011;4133;48.752;9.088;2023-06-10T12:14:09;0.85;;;0.85;;
8183;SDS011;4133;48.752;9.088;2023-06-10T12:16:35;0.55;;;0.55;;
8183;SDS011;4133;48.752;9.088;2023-06-10T12:19:02;0.60;;;0.60;;
8183;SDS011;4133;48.752;9.088;2023-06-10T12:21:28;0.60;;;0.60;;
8183;SDS011;4133;48.752;9.088;2023-06-10T12:24:02;0.63;;;0.63;;
8183;SDS011;4133;48.752;9.088;2023-06-10T12:26:38;0.70;;;0.70;;
8183;SDS011;4133;48.752;9.088;2023-06-10T12:29:21;0.60;;;0.60;;
8183;SDS011;4133;48.752;9.088;2023-06-10T12:31:55;0.52;;;0.52;;
8183;SDS011;4133;48.752;9.088;2023-06-10T12:34:33;0.80;;;0.80;;
8183;SDS011;4133;48.752;9.088;2023-06-10T12:37:02;0.65;;;0.65;;
8183;SDS011;4133;48.752;9.088;2023-06-10T12:39:29;0.50;;;0.50;;
8183;SDS011;4133;48.752;9.088;2023-06-10T12:41:55;0.50;;;0.50;;
8183;SDS011;4133;48.752;9.088;2023-06-10T12:44:33;0.50;;;0.50;;
8183;SDS011;4133;48.752;9.088;2023-06-10T12:47:00;0.60;;;0.60;;
8183;SDS011;4133;48.752;9.088;2023-06-10T12:49:26;0.75;;;0.75;;
8183;SDS011;4133;48.752;9.088;2023-06-10T12:51:53;0.70;;;0.60;;
8183;SDS011;4133;48.752;9.088;2023-06-10T12:54:19;0.60;;;0.60;;
8183;SDS011;4133;48.752;9.088;2023-06-10T12:56:45;0.70;;;0.70;;
8183;SDS011;4133;48.752;9.088;2023-06-10T12:59:11;0.55;;;0.55;;
8183;SDS011;4133;48.752;9.088;2023-06-10T13:01:37;0.50;;;0.50;;
8183;SDS011;4133;48.752;9.088;2023-06-10T13:04:04;0.50;;;0.50;;
8183;SDS011;4133;48.752;9.088;2023-06-10T13:09:35;0.50;;;0.50;;
8183;SDS011;4133;48.752;9.088;2023-06-10T13:12:01;0.47;;;0.47;;
8183;SDS011;4133;48.752;9.088;2023-06-10T13:14:27;0.50;;;0.50;;
8183;SDS011;4133;48.752;9.088;2023-06-10T13:16:54;0.50;;;0.50;;
8183;SDS011;4133;48.752;9.088;2023-06-10T13:19:23;0.70;;;0.70;;
8183;SDS011;4133;48.752;9.088;2023-06-10T13:21:49;0.85;;;0.50;;
8183;SDS011;4133;48.752;9.088;2023-06-10T13:24:15;0.60;;;0.60;;
8183;SDS011;4133;48.752;9.088;2023-06-10T13:26:41;0.70;;;0.50;;
8183;SDS011;4133;48.752;9.088;2023-06-10T13:29:07;0.47;;;0.47;;
8183;SDS011;4133;48.752;9.088;2023-06-10T13:31:38;0.47;;;0.47;;
8183;SDS011;4133;48.752;9.088;2023-06-10T13:34:05;0.68;;;0.68;;
8183;SDS011;4133;48.752;9.088;2023-06-10T13:36:31;0.57;;;0.57;;
8183;SDS011;4133;48.752;9.088;2023-06-10T13:38:57;0.30;;;0.30;;
8183;SDS011;4133;48.752;9.088;2023-06-10T13:41:23;0.60;;;0.50;;
8183;SDS011;4133;48.752;9.088;2023-06-10T13:43:49;0.60;;;0.60;;
8183;SDS011;4133;48.752;9.088;2023-06-10T13:46:16;0.57;;;0.57;;
8183;SDS011;4133;48.752;9.088;2023-06-10T13:48:41;0.55;;;0.55;;
8183;SDS011;4133;48.752;9.088;2023-06-10T13:51:08;0.50;;;0.50;;
8183;SDS011;4133;48.752;9.088;2023-06-10T13:53:34;0.65;;;0.65;;
8183;SDS011;4133;48.752;9.088;2023-06-10T13:56:00;0.60;;;0.60;;
8183;SDS011;4133;48.752;9.088;2023-06-10T13:58:26;0.60;;;0.60;;
8183;SDS011;4133;48.752;9.088;2023-06-10T14:00:52;0.60;;;0.60;;
8183;SDS011;4133;48.752;9.088;2023-06-10T14:03:18;0.43;;;0.43;;
8183;SDS011;4133;48.752;9.088;2023-06-10T14:08:48;0.50;;;0.50;;
8183;SDS011;4133;48.752;9.088;2023-06-10T14:11:14;0.50;;;0.50;;
8183;SDS011;4133;48.752;9.088;2023-06-10T14:13:40;0.28;;;0.28;;
8183;SDS011;4133;48.752;9.088;2023-06-10T14:16:06;0.52;;;0.52;;
8183;SDS011;4133;48.752;9.088;2023-06-10T14:18:32;0.60;;;0.60;;
8183;SDS011;4133;48.752;9.088;2023-06-10T14:20:58;0.60;;;0.60;;
8183;SDS011;4133;48.752;9.088;2023-06-10T14:23:24;0.50;;;0.50;;
8183;SDS011;4133;48.752;9.088;2023-06-10T14:25:51;0.55;;;0.55;;
8183;SDS011;4133;48.752;9.088;2023-06-10T14:28:17;0.40;;;0.40;;
8183;SDS011;4133;48.752;9.088;2023-06-10T14:30:43;0.60;;;0.60;;
8183;SDS011;4133;48.752;9.088;2023-06-10T14:33:09;0.47;;;0.47;;
8183;SDS011;4133;48.752;9.088;2023-06-10T14:35:35;0.50;;;0.50;;
8183;SDS011;4133;48.752;9.088;2023-06-10T14:38:01;0.60;;;0.60;;
8183;SDS011;4133;48.752;9.088;2023-06-10T14:40:28;0.60;;;0.60;;
8183;SDS011;4133;48.752;9.088;2023-06-10T14:42:57;0.40;;;0.40;;
8183;SDS011;4133;48.752;9.088;2023-06-10T14:45:25;0.68;;;0.60;;
8183;SDS011;4133;48.752;9.088;2023-06-10T14:47:51;0.50;;;0.50;;
8183;SDS011;4133;48.752;9.088;2023-06-10T14:50:17;0.60;;;0.60;;
8183;SDS011;4133;48.752;9.088;2023-06-10T14:52:43;0.45;;;0.45;;
8183;SDS011;4133;48.752;9.088;2023-06-10T14:55:09;0.60;;;0.60;;
8183;SDS011;4133;48.752;9.088;2023-06-10T14:57:34;0.50;;;0.50;;
8183;SDS011;4133;48.752;9.088;2023-06-10T15:00:01;0.32;;;0.32;;
8183;SDS011;4133;48.752;9.088;2023-06-10T15:02:27;0.40;;;0.40;;
8183;SDS011;4133;48.752;9.088;2023-06-10T15:04:54;0.60;;;0.57;;
8183;SDS011;4133;48.752;9.088;2023-06-10T15:07:20;0.57;;;0.57;;
8183;SDS011;4133;48.752;9.088;2023-06-10T15:09:45;0.52;;;0.50;;
8183;SDS011;4133;48.752;9.088;2023-06-10T15:12:11;0.52;;;0.52;;
8183;SDS011;4133;48.752;9.088;2023-06-10T15:14:37;0.50;;;0.50;;
8183;SDS011;4133;48.752;9.088;2023-06-10T15:17:03;0.90;;;0.60;;
8183;SDS011;4133;48.752;9.088;2023-06-10T15:19:29;0.60;;;0.60;;
8183;SDS011;4133;48.752;9.088;2023-06-10T15:21:55;0.70;;;0.70;;
8183;SDS011;4133;48.752;9.088;2023-06-10T15:24:21;0.80;;;0.80;;
8183;SDS011;4133;48.752;9.088;2023-06-10T15:26:47;0.60;;;0.60;;
8183;SDS011;4133;48.752;9.088;2023-06-10T15:29:13;0.50;;;0.50;;
8183;SDS011;4133;48.752;9.088;2023-06-10T15:31:40;0.77;;;0.77;;
8183;SDS011;4133;48.752;9.088;2023-06-10T15:34:06;0.80;;;0.65;;
8183;SDS011;4133;48.752;9.088;2023-06-10T15:36:33;0.68;;;0.68;;
8183;SDS011;4133;48.752;9.088;2023-06-10T15:39:02;0.50;;;0.50;;
8183;SDS011;4133;48.752;9.088;2023-06-10T15:41:29;0.60;;;0.60;;
8183;SDS011;4133;48.752;9.088;2023-06-10T15:43:55;0.50;;;0.50;;
8183;SDS011;4133;48.752;9.088;2023-06-10T15:46:24;0.50;;;0.50;;
8183;SDS011;4133;48.752;9.088;2023-06-10T15:48:50;0.80;;;0.65;;
8183;SDS011;4133;48.752;9.088;2023-06-10T15:51:18;0.98;;;0.85;;
8183;SDS011;4133;48.752;9.088;2023-06-10T15:53:44;0.50;;;0.50;;
8183;SDS011;4133;48.752;9.088;2023-06-10T15:56:12;0.70;;;0.70;;